Time;durP1;ratioP1;P1;durP2;ratioP2;P2;SDS_P1;SDS_P2;PMS_P1;PMS_P2;Temp;Humidity;BMP_temperature;BMP_pressure;BME280_temperature;BME280_humidity;BME280_pressure;Samples;Min_cycle;Max_cycle;Signal;HPM_P1;HPM_P2
2023/04/07 00:00:11;;;;;;;;;1.00;1.00;;;;;12.62;96.22;101473.22;5035633;28;64032;-70
2023/04/07 00:02:37;;;;;;;;;5.67;1.67;;;;;12.57;96.65;101466.13;5036612;28;45351;-71
2023/04/07 00:05:02;;;;;;;;;3.33;1.00;;;;;12.54;97.14;101465.19;5036761;28;45474;-70
2023/04/07 00:07:27;;;;;;;;;2.00;1.00;;;;;12.49;97.71;101467.78;5037623;28;46755;-71
2023/04/07 00:09:53;;;;;;;;;2.67;1.00;;;;;12.49;98.27;101464.25;5037077;28;59699;-72
2023/04/07 00:12:18;;;;;;;;;1.67;1.00;;;;;12.42;99.06;101460.63;5038210;28;46197;-71
2023/04/07 00:14:43;;;;;;;;;2.33;1.33;;;;;12.40;99.30;101466.75;5036712;28;66344;-71
2023/04/07 00:17:09;;;;;;;;;3.00;1.00;;;;;12.35;100.00;101457.84;5037506;28;60671;-71
2023/04/07 00:19:34;;;;;;;;;3.33;1.00;;;;;12.31;100.00;101456.94;5035479;28;45550;-70
2023/04/07 00:22:00;;;;;;;;;2.00;2.00;;;;;12.35;100.00;101461.41;5037266;28;46450;-70
2023/04/07 00:24:26;;;;;;;;;2.67;1.00;;;;;12.33;100.00;101456.09;5042210;28;45582;-71
2023/04/07 00:26:51;;;;;;;;;3.67;2.00;;;;;12.35;100.00;101453.44;5037208;28;45413;-71
2023/04/07 00:29:16;;;;;;;;;3.75;2.50;;;;;12.35;100.00;101453.44;5037596;28;45564;-71
2023/04/07 00:31:42;;;;;;;;;2.00;0.00;;;;;12.35;100.00;101444.63;5036850;28;67030;-70
2023/04/07 00:34:07;;;;;;;;;1.67;1.00;;;;;12.41;100.00;101450.91;5036957;28;67136;-70
2023/04/07 00:36:32;;;;;;;;;4.00;1.00;;;;;12.42;100.00;101443.84;5036864;28;56410;-70
2023/04/07 00:38:58;;;;;;;;;2.00;2.00;;;;;12.43;100.00;101427.97;5037205;28;60077;-71
2023/04/07 00:41:23;;;;;;;;;4.67;1.00;;;;;12.49;100.00;101445.69;5037416;28;45700;-71
2023/04/07 00:43:50;;;;;;;;;2.00;2.00;;;;;12.46;100.00;101429.75;5036697;28;66689;-71
2023/04/07 00:46:16;;;;;;;;;2.00;1.00;;;;;12.50;100.00;101428.94;5037716;28;45365;-71
2023/04/07 00:48:42;;;;;;;;;4.00;1.00;;;;;12.54;100.00;101428.09;5036739;28;45669;-71
2023/04/07 00:51:07;;;;;;;;;2.00;1.00;;;;;12.53;100.00;101431.63;5037405;28;46031;-71
2023/04/07 00:53:33;;;;;;;;;2.00;2.00;;;;;12.53;100.00;101428.97;5035610;28;64785;-71
2023/04/07 00:55:58;;;;;;;;;3.00;1.00;;;;;12.53;100.00;101424.56;5037452;28;45397;-70
2023/04/07 00:58:23;;;;;;;;;3.25;2.00;;;;;12.55;100.00;101427.22;5037139;28;45232;-71
2023/04/07 01:00:57;;;;;;;;;1.00;1.00;;;;;12.57;100.00;101438.75;5034970;28;65006;-71
2023/04/07 01:03:45;;;;;;;;;3.67;1.33;;;;;12.57;100.00;101433.47;5014447;28;45446;-71
2023/04/07 01:06:14;;;;;;;;;2.00;2.00;;;;;12.55;100.00;101435.19;5008888;28;45552;-71
2023/04/07 01:08:50;;;;;;;;;1.00;1.00;;;;;12.52;100.00;101441.34;5035799;28;45483;-71
2023/04/07 01:11:24;;;;;;;;;3.00;2.00;;;;;12.48;100.00;101431.56;5019324;28;45841;-72
2023/04/07 01:13:51;;;;;;;;;7.33;2.00;;;;;12.52;100.00;101441.34;5037020;28;45455;-71
2023/04/07 01:16:23;;;;;;;;;5.25;2.00;;;;;12.52;100.00;101432.50;5037197;28;45368;-71
2023/04/07 01:18:51;;;;;;;;;4.33;2.00;;;;;12.54;100.00;101436.06;5024805;28;45545;-71
2023/04/07 01:21:17;;;;;;;;;4.00;1.00;;;;;12.55;100.00;101433.41;5019443;28;45903;-71
2023/04/07 01:24:00;;;;;;;;;3.00;2.00;;;;;12.53;100.00;101424.56;5019794;28;67288;-70
2023/04/07 01:26:29;;;;;;;;;4.33;1.33;;;;;12.59;100.00;101437.88;5007064;28;45435;-71
2023/04/07 01:29:26;;;;;;;;;3.00;2.00;;;;;12.62;100.00;101430.84;5033253;28;45539;-71
2023/04/07 01:31:54;;;;;;;;;2.33;1.00;;;;;12.62;100.00;101441.44;5034959;28;47594;-71
2023/04/07 01:34:21;;;;;;;;;3.67;1.67;;;;;12.61;100.00;101435.25;5018775;28;45326;-72
2023/04/07 01:36:48;;;;;;;;;2.00;1.75;;;;;12.66;100.00;101432.66;5034957;28;45460;-70
2023/04/07 01:39:14;;;;;;;;;4.67;1.67;;;;;12.66;100.00;101436.19;5035723;28;45368;-70
2023/04/07 01:41:40;;;;;;;;;3.00;1.33;;;;;12.66;100.00;101438.84;5036663;28;46319;-70
2023/04/07 01:44:07;;;;;;;;;3.33;2.00;;;;;12.68;100.00;101436.25;5035847;28;69669;-71
2023/04/07 01:46:33;;;;;;;;;1.67;1.33;;;;;12.65;100.00;101433.53;5035912;28;50531;-70
2023/04/07 01:48:58;;;;;;;;;2.00;1.00;;;;;12.69;100.00;101438.00;5035480;28;64733;-71
2023/04/07 01:51:25;;;;;;;;;4.00;1.00;;;;;12.65;100.00;101438.84;5018279;28;67465;-72
2023/04/07 01:53:51;;;;;;;;;0.00;0.00;;;;;12.63;100.00;101438.81;5018387;28;45440;-71
2023/04/07 01:56:16;;;;;;;;;1.00;1.00;;;;;12.66;100.00;101451.22;5035015;28;64802;-71
2023/04/07 01:58:42;;;;;;;;;2.00;0.00;;;;;12.61;100.00;101431.72;5035756;28;45198;-70
2023/04/07 02:01:07;;;;;;;;;2.33;1.00;;;;;12.60;100.00;101449.38;5035897;28;47381;-71
2023/04/07 02:03:43;;;;;;;;;1.00;1.00;;;;;12.56;100.00;101436.94;5036736;28;45339;-70
2023/04/07 02:06:11;;;;;;;;;1.00;1.00;;;;;12.54;100.00;101438.69;5035821;28;45466;-71
2023/04/07 02:08:42;;;;;;;;;1.67;1.00;;;;;12.56;100.00;101443.13;5031739;28;45468;-71
2023/04/07 02:11:08;;;;;;;;;4.00;1.00;;;;;12.59;100.00;101452.91;5016686;28;47315;-71
2023/04/07 02:13:35;;;;;;;;;4.33;2.00;;;;;12.54;100.00;101444.88;5033651;28;65800;-71
2023/04/07 02:16:01;;;;;;;;;3.00;2.00;;;;;12.58;100.00;101440.53;5035140;28;45419;-71
2023/04/07 02:18:27;;;;;;;;;1.00;1.00;;;;;12.59;100.00;101451.13;5036494;28;45351;-70
2023/04/07 02:20:52;;;;;;;;;4.00;1.00;;;;;12.58;100.00;101445.81;5025619;28;47350;-71
2023/04/07 02:23:18;;;;;;;;;1.00;1.00;;;;;12.57;100.00;101457.31;5034990;28;45546;-70
2023/04/07 02:25:43;;;;;;;;;0.67;0.67;;;;;12.57;100.00;101459.94;5040840;28;54426;-70
2023/04/07 02:28:08;;;;;;;;;1.00;1.00;;;;;12.54;100.00;101458.13;5036697;28;45794;-71
2023/04/07 02:30:35;;;;;;;;;5.33;1.67;;;;;12.49;100.00;101451.88;5033595;28;47552;-70
2023/04/07 02:33:00;;;;;;;;;2.00;2.00;;;;;12.45;100.00;101451.81;5036158;28;45220;-70
2023/04/07 02:35:26;;;;;;;;;0.67;0.67;;;;;12.37;100.00;101449.09;5035560;28;45499;-70
2023/04/07 02:37:51;;;;;;;;;4.00;3.00;;;;;12.34;100.00;101454.31;5035403;28;49684;-71
2023/04/07 02:40:17;;;;;;;;;2.33;2.00;;;;;12.31;100.00;101451.66;5036820;28;45603;-71
2023/04/07 02:42:42;;;;;;;;;3.33;2.00;;;;;12.25;100.00;101452.47;5039575;28;48819;-70
2023/04/07 02:45:09;;;;;;;;;8.25;6.25;;;;;12.21;100.00;101447.09;5033658;28;55166;-71
2023/04/07 02:47:35;;;;;;;;;9.00;7.25;;;;;12.15;100.00;101449.66;5033363;28;45428;-71
2023/04/07 02:50:00;;;;;;;;;6.25;5.00;;;;;12.12;100.00;101447.84;5017109;28;46289;-70
2023/04/07 02:52:26;;;;;;;;;9.25;4.25;;;;;12.09;100.00;101441.59;5035372;28;45268;-71
2023/04/07 02:54:51;;;;;;;;;3.00;3.00;;;;;12.06;100.00;101448.63;5034882;28;62809;-70
2023/04/07 02:57:17;;;;;;;;;8.50;6.50;;;;;12.01;100.00;101442.38;5017220;28;45559;-71
2023/04/07 02:59:42;;;;;;;;;7.00;5.00;;;;;12.02;100.00;101445.91;5034478;28;46575;-71
2023/04/07 03:02:07;;;;;;;;;5.00;3.00;;;;;11.98;100.00;101439.69;5033805;28;65688;-70
2023/04/07 03:04:33;;;;;;;;;4.00;2.50;;;;;11.94;100.00;101440.53;5034676;28;62722;-71
2023/04/07 03:06:59;;;;;;;;;6.00;4.00;;;;;11.92;100.00;101441.34;5035795;28;45597;-70
2023/04/07 03:09:25;;;;;;;;;3.00;3.00;;;;;11.88;100.00;101439.53;5034839;28;45590;-70
2023/04/07 03:11:50;;;;;;;;;3.25;3.25;;;;;11.88;100.00;101437.78;5034941;28;45289;-70
2023/04/07 03:14:16;;;;;;;;;7.75;3.25;;;;;11.87;100.00;101435.09;5016031;28;62854;-71
2023/04/07 03:16:41;;;;;;;;;2.00;2.00;;;;;11.84;100.00;101437.72;5034880;28;45372;-70
2023/04/07 03:19:07;;;;;;;;;1.50;1.25;;;;;11.81;100.00;101438.50;5034310;28;45960;-70
2023/04/07 03:21:33;;;;;;;;;4.00;1.00;;;;;11.77;100.00;101442.88;5034885;28;45625;-70
2023/04/07 03:23:59;;;;;;;;;5.25;3.00;;;;;11.77;100.00;101447.25;5039537;28;45197;-70
2023/04/07 03:26:24;;;;;;;;;3.00;1.00;;;;;11.76;100.00;101440.19;5037520;28;45515;-71
2023/04/07 03:28:49;;;;;;;;;5.00;2.00;;;;;11.74;100.00;101452.50;5038030;28;69507;-70
2023/04/07 03:31:15;;;;;;;;;7.75;2.75;;;;;11.73;100.00;101453.38;5038199;28;45506;-70
2023/04/07 03:33:40;;;;;;;;;5.00;1.67;;;;;11.69;100.00;101443.63;5037727;28;64033;-70
2023/04/07 03:36:07;;;;;;;;;2.25;2.00;;;;;11.68;100.00;101450.66;5037768;28;54891;-70
2023/04/07 03:38:32;;;;;;;;;1.67;1.67;;;;;11.66;100.00;101456.78;5035527;28;46834;-70
2023/04/07 03:40:57;;;;;;;;;7.33;2.00;;;;;11.64;100.00;101455.88;5020721;28;45463;-71
2023/04/07 03:43:23;;;;;;;;;3.75;1.00;;;;;11.62;100.00;101453.22;5038144;28;45717;-70
2023/04/07 03:45:48;;;;;;;;;2.00;2.00;;;;;11.61;100.00;101453.16;5037346;28;61984;-70
2023/04/07 03:48:13;;;;;;;;;3.00;2.00;;;;;11.59;100.00;101452.25;5036496;28;65237;-70
2023/04/07 03:50:39;;;;;;;;;6.00;3.00;;;;;11.55;100.00;101449.53;5037745;28;65858;-71
2023/04/07 03:53:05;;;;;;;;;3.00;3.00;;;;;11.52;100.00;101454.81;5037949;28;45417;-70
2023/04/07 03:55:30;;;;;;;;;2.00;2.00;;;;;11.53;100.00;101453.94;5038205;28;45455;-72
2023/04/07 03:57:56;;;;;;;;;5.50;3.00;;;;;11.50;100.00;101452.97;5038177;28;46604;-71
2023/04/07 04:00:21;;;;;;;;;2.00;2.00;;;;;11.46;100.00;101444.13;5036443;28;45340;-70
2023/04/07 04:02:47;;;;;;;;;4.00;2.00;;;;;11.47;100.00;101445.91;5035998;28;59046;-70
2023/04/07 04:05:12;;;;;;;;;2.00;1.25;;;;;11.45;100.00;101454.66;5036129;28;54492;-71
2023/04/07 04:07:38;;;;;;;;;2.50;2.50;;;;;11.43;100.00;101459.03;5037900;28;46393;-70
2023/04/07 04:10:03;;;;;;;;;3.00;1.75;;;;;11.40;100.00;101451.97;5038141;28;45361;-70
2023/04/07 04:12:29;;;;;;;;;1.00;1.00;;;;;11.39;100.00;101457.19;5036516;28;45542;-71
2023/04/07 04:14:54;;;;;;;;;2.50;2.50;;;;;11.35;100.00;101458.91;5037521;28;63496;-70
2023/04/07 04:17:19;;;;;;;;;2.50;2.50;;;;;11.36;100.00;101468.63;5037812;28;45542;-70
2023/04/07 04:19:45;;;;;;;;;1.25;1.00;;;;;11.33;100.00;101468.56;5037646;28;45359;-70
2023/04/07 04:22:10;;;;;;;;;4.50;2.00;;;;;11.31;100.00;101466.75;5029536;28;45450;-70
2023/04/07 04:24:35;;;;;;;;;4.00;2.00;;;;;11.30;100.00;101480.84;5037664;28;45311;-70
2023/04/07 04:27:01;;;;;;;;;2.00;1.00;;;;;11.26;100.00;101474.59;5036548;28;70222;-70
2023/04/07 04:29:26;;;;;;;;;2.00;2.00;;;;;11.25;100.00;101467.53;5035513;28;46047;-69
2023/04/07 04:31:51;;;;;;;;;4.00;2.25;;;;;11.26;100.00;101478.13;5037186;28;45465;-70
2023/04/07 04:34:17;;;;;;;;;8.00;3.00;;;;;11.24;100.00;101477.22;5037076;28;45305;-70
2023/04/07 04:36:42;;;;;;;;;2.00;2.00;;;;;11.23;100.00;101480.72;5032392;28;69356;-69
2023/04/07 04:39:08;;;;;;;;;2.50;1.00;;;;;11.23;100.00;101478.06;5037430;28;45358;-70
2023/04/07 04:41:33;;;;;;;;;2.50;1.00;;;;;11.20;100.00;101474.50;5039486;28;63446;-71
2023/04/07 04:43:59;;;;;;;;;4.00;3.00;;;;;11.21;100.00;101481.56;5039325;28;45424;-70
2023/04/07 04:46:24;;;;;;;;;4.50;2.75;;;;;11.16;100.00;101472.66;5032311;28;45506;-71
2023/04/07 04:48:53;;;;;;;;;3.00;1.50;;;;;11.16;100.00;101480.56;5036182;28;45498;-71
2023/04/07 04:51:19;;;;;;;;;1.00;1.00;;;;;11.15;100.00;101476.16;5031877;28;45429;-70
2023/04/07 04:53:44;;;;;;;;;2.00;2.00;;;;;11.12;100.00;101489.31;5027738;28;45466;-69
2023/04/07 04:56:10;;;;;;;;;5.75;2.00;;;;;11.09;100.00;101487.50;5032340;28;46472;-69
2023/04/07 04:58:36;;;;;;;;;2.00;2.00;;;;;11.06;100.00;101487.44;5035973;28;45384;-69
2023/04/07 05:01:02;;;;;;;;;3.50;2.75;;;;;11.04;100.00;101481.25;5035340;28;45451;-69
2023/04/07 05:03:27;;;;;;;;;1.67;1.67;;;;;11.05;100.00;101482.13;5035071;28;54347;-70
2023/04/07 05:05:53;;;;;;;;;5.00;3.00;;;;;11.05;100.00;101490.06;5034363;28;46329;-69
2023/04/07 05:08:18;;;;;;;;;4.00;3.00;;;;;11.06;100.00;101494.47;5035968;28;67255;-72
2023/04/07 05:10:43;;;;;;;;;2.00;2.00;;;;;11.01;100.00;101489.97;5035376;28;47829;-70
2023/04/07 05:13:09;;;;;;;;;3.75;2.00;;;;;11.04;100.00;101493.56;5035043;28;59447;-71
2023/04/07 05:15:34;;;;;;;;;6.00;2.75;;;;;11.01;100.00;101497.91;5035428;28;45755;-71
2023/04/07 05:18:00;;;;;;;;;4.25;2.00;;;;;10.96;100.00;101494.28;5035687;28;45482;-71
2023/04/07 05:20:25;;;;;;;;;3.00;3.00;;;;;11.00;100.00;101496.13;5035559;28;50763;-71
2023/04/07 05:22:50;;;;;;;;;3.75;3.00;;;;;10.99;100.00;101497.00;5143331;22;45680;-70
2023/04/07 05:25:16;;;;;;;;;7.00;3.50;;;;;10.98;100.00;101492.59;5032582;28;66457;-70
2023/04/07 05:27:41;;;;;;;;;3.75;2.00;;;;;10.97;100.00;101495.16;5034690;28;64399;-70
2023/04/07 05:30:07;;;;;;;;;4.75;4.00;;;;;10.96;100.00;101490.75;5037239;28;45706;-70
2023/04/07 05:32:32;;;;;;;;;4.75;3.00;;;;;10.93;100.00;101491.59;5036661;28;45415;-70
2023/04/07 05:34:58;;;;;;;;;4.50;2.50;;;;;10.94;100.00;101496.03;5014644;28;69889;-71
2023/04/07 05:37:23;;;;;;;;;4.25;2.75;;;;;10.92;100.00;101489.81;5016758;28;55502;-70
2023/04/07 05:39:48;;;;;;;;;3.00;3.00;;;;;10.90;100.00;101488.88;5030414;28;46602;-70
2023/04/07 05:42:14;;;;;;;;;8.25;6.00;;;;;10.88;100.00;101509.09;5033342;28;45348;-70
2023/04/07 05:44:39;;;;;;;;;3.50;3.50;;;;;10.84;100.00;101506.38;5033487;28;45651;-71
2023/04/07 05:47:07;;;;;;;;;6.50;3.75;;;;;10.84;100.00;101509.91;5032342;28;45366;-72
2023/04/07 05:49:34;;;;;;;;;5.50;2.25;;;;;10.83;100.00;101508.13;5030481;28;45434;-71
2023/04/07 05:51:59;;;;;;;;;6.75;3.00;;;;;10.85;100.00;101506.38;5032421;28;45564;-71
2023/04/07 05:54:25;;;;;;;;;4.25;3.75;;;;;10.85;100.00;101506.38;5028790;28;45613;-71
2023/04/07 05:56:50;;;;;;;;;3.00;3.00;;;;;10.85;100.00;101509.03;5034132;28;45481;-71
2023/04/07 05:59:15;;;;;;;;;4.50;3.00;;;;;10.86;100.00;101513.44;5033992;28;45415;-71
2023/04/07 06:01:41;;;;;;;;;7.75;3.25;;;;;10.87;100.00;101509.09;5034150;28;62799;-71
2023/04/07 06:04:06;;;;;;;;;4.00;3.25;;;;;10.83;100.00;101499.31;5030774;28;46429;-71
2023/04/07 06:06:32;;;;;;;;;9.50;4.00;;;;;10.85;100.00;101508.13;5036095;28;45444;-71
2023/04/07 06:08:57;;;;;;;;;8.00;2.00;;;;;10.89;100.00;101513.53;5030995;28;45562;-70
2023/04/07 06:11:22;;;;;;;;;5.25;4.50;;;;;10.92;100.00;101529.47;5028776;28;45526;-70
2023/04/07 06:13:48;;;;;;;;;3.00;3.00;;;;;10.94;100.00;101527.72;5029735;28;67591;-70
2023/04/07 06:16:13;;;;;;;;;5.50;3.50;;;;;10.97;100.00;101525.16;5029164;28;54390;-70
2023/04/07 06:18:39;;;;;;;;;4.00;4.00;;;;;10.98;100.00;101528.69;5025810;28;64777;-71
2023/04/07 06:21:05;;;;;;;;;5.75;3.00;;;;;10.99;100.00;101533.09;5030878;28;45622;-71
2023/04/07 06:23:30;;;;;;;;;4.75;4.00;;;;;11.01;100.00;101536.66;5031323;28;45548;-70
2023/04/07 06:25:56;;;;;;;;;7.00;4.00;;;;;11.01;100.00;101536.66;5033800;28;45470;-71
2023/04/07 06:28:21;;;;;;;;;8.50;6.50;;;;;11.03;100.00;101545.53;5033714;28;45805;-70
2023/04/07 06:30:46;;;;;;;;;4.25;4.00;;;;;11.01;100.00;101542.84;5034755;28;45587;-70
2023/04/07 06:33:12;;;;;;;;;9.75;5.50;;;;;11.01;100.00;101545.47;5015798;28;69043;-71
2023/04/07 06:35:39;;;;;;;;;4.50;4.50;;;;;11.02;100.00;101544.66;5030581;28;63884;-71
2023/04/07 06:38:04;;;;;;;;;7.25;5.25;;;;;11.01;100.00;101548.13;5015973;28;45640;-72
2023/04/07 06:40:30;;;;;;;;;5.50;5.25;;;;;11.04;100.00;101555.25;5030566;28;58652;-71
2023/04/07 06:42:55;;;;;;;;;9.75;7.25;;;;;11.07;100.00;101552.63;5034193;28;46056;-71
2023/04/07 06:45:20;;;;;;;;;9.25;9.00;;;;;11.06;100.00;101556.16;5032707;28;46404;-72
2023/04/07 06:47:46;;;;;;;;;8.00;6.50;;;;;11.11;100.00;101569.47;5026138;28;66029;-70
2023/04/07 06:50:11;;;;;;;;;6.50;6.00;;;;;11.13;100.00;101567.72;5029241;28;58172;-72
2023/04/07 06:52:37;;;;;;;;;7.50;6.00;;;;;11.13;100.00;101568.66;5035726;28;45475;-72
2023/04/07 06:55:02;;;;;;;;;8.00;4.00;;;;;11.15;100.00;101568.66;5031382;28;67245;-72
2023/04/07 06:57:28;;;;;;;;;8.00;5.25;;;;;11.20;100.00;101574.94;5034120;28;45265;-70
2023/04/07 06:59:53;;;;;;;;;9.75;5.25;;;;;11.20;100.00;101574.94;5035036;28;45590;-70
2023/04/07 07:02:18;;;;;;;;;18.75;9.00;;;;;11.19;100.00;101567.88;5033593;28;71513;-70
2023/04/07 07:04:44;;;;;;;;;8.25;6.00;;;;;11.20;100.00;101564.38;5027736;28;68122;-71
2023/04/07 07:07:09;;;;;;;;;8.25;5.75;;;;;11.23;100.00;101575.88;5033863;28;45407;-71
2023/04/07 07:09:34;;;;;;;;;8.00;6.50;;;;;11.30;100.00;101578.66;5029715;28;45463;-72
2023/04/07 07:12:01;;;;;;;;;9.75;8.50;;;;;11.33;100.00;101574.31;5028826;28;69769;-70
2023/04/07 07:14:26;;;;;;;;;7.00;5.25;;;;;11.35;100.00;101579.66;5032713;28;45605;-71
2023/04/07 07:16:52;;;;;;;;;12.00;7.50;;;;;11.40;100.00;101586.81;5030142;28;45472;-73
2023/04/07 07:19:17;;;;;;;;;9.25;7.75;;;;;11.40;100.00;101586.81;5034436;28;45545;-71
2023/04/07 07:21:42;;;;;;;;;7.25;7.25;;;;;11.46;100.00;101589.56;5031315;28;48377;-71
2023/04/07 07:24:08;;;;;;;;;5.00;5.00;;;;;11.45;100.00;101587.78;5031685;28;61049;-71
2023/04/07 07:26:33;;;;;;;;;9.25;8.00;;;;;11.48;100.00;101590.47;5033618;28;65272;-71
2023/04/07 07:28:59;;;;;;;;;9.00;6.50;;;;;11.52;100.00;101600.25;5032132;28;55618;-71
2023/04/07 07:31:24;;;;;;;;;9.00;8.50;;;;;11.52;100.00;101591.44;5037285;28;46796;-72
2023/04/07 07:33:50;;;;;;;;;14.50;8.25;;;;;11.57;100.00;101600.34;5034462;28;45708;-71
2023/04/07 07:36:16;;;;;;;;;14.25;9.25;;;;;11.61;100.00;101604.84;5032839;28;45390;-72
2023/04/07 07:38:41;;;;;;;;;13.75;10.00;;;;;11.64;100.00;101611.94;5033177;28;45391;-71
2023/04/07 07:41:07;;;;;;;;;9.25;5.25;;;;;11.65;100.00;101608.44;5032696;28;66209;-71
2023/04/07 07:43:32;;;;;;;;;10.00;6.25;;;;;11.66;100.00;101610.19;5034988;28;45377;-71
2023/04/07 07:45:57;;;;;;;;;8.00;7.00;;;;;11.68;100.00;101616.44;5034384;28;45992;-71
2023/04/07 07:48:23;;;;;;;;;12.00;9.50;;;;;11.69;100.00;101613.81;5034121;28;49339;-71
2023/04/07 07:50:50;;;;;;;;;8.50;8.00;;;;;11.72;100.00;101605.06;5033428;28;71405;-71
2023/04/07 07:53:16;;;;;;;;;12.75;7.00;;;;;11.72;100.00;101597.13;5035602;28;45234;-71
2023/04/07 07:55:41;;;;;;;;;15.00;7.50;;;;;11.76;100.00;101597.19;5032181;28;64612;-71
2023/04/07 07:58:07;;;;;;;;;12.50;7.50;;;;;11.79;100.00;101604.28;5033292;28;45457;-71
2023/04/07 08:00:32;;;;;;;;;9.50;8.00;;;;;11.82;100.00;101611.41;5034459;28;45697;-71
2023/04/07 08:02:57;;;;;;;;;14.00;8.50;;;;;11.87;100.00;101605.34;5015160;28;66723;-72
2023/04/07 08:05:23;;;;;;;;;11.25;10.00;;;;;11.92;100.00;101616.00;5015870;28;63237;-72
2023/04/07 08:07:48;;;;;;;;;12.50;8.75;;;;;11.95;100.00;101614.31;5033063;28;45316;-73
2023/04/07 08:10:14;;;;;;;;;9.00;9.00;;;;;12.02;100.00;101617.97;5035224;28;46640;-72
2023/04/07 08:12:40;;;;;;;;;11.00;8.00;;;;;12.03;100.00;101620.63;5032857;28;45745;-73
2023/04/07 08:15:08;;;;;;;;;10.50;8.50;;;;;12.02;100.00;101623.25;5035388;28;45495;-72
2023/04/07 08:17:34;;;;;;;;;8.00;8.00;;;;;12.03;100.00;101619.75;5037433;28;45415;-72
2023/04/07 08:20:00;;;;;;;;;6.00;4.50;;;;;12.07;100.00;101622.47;5036675;28;47387;-72
2023/04/07 08:22:25;;;;;;;;;8.50;6.25;;;;;12.11;100.00;101611.94;5038656;28;45683;-72
2023/04/07 08:24:50;;;;;;;;;9.25;9.25;;;;;12.14;100.00;101630.53;5036995;28;46285;-72
2023/04/07 08:27:16;;;;;;;;;10.50;9.00;;;;;12.18;100.00;101624.41;5042096;28;59094;-71
2023/04/07 08:29:41;;;;;;;;;9.75;8.00;;;;;12.19;100.00;101619.13;5044164;28;45678;-72
2023/04/07 08:32:06;;;;;;;;;9.25;6.50;;;;;12.20;100.00;101620.06;5037474;28;47150;-73
2023/04/07 08:34:32;;;;;;;;;10.50;8.75;;;;;12.26;100.00;101610.47;5042242;28;45423;-73
2023/04/07 08:36:57;;;;;;;;;11.75;10.00;;;;;12.28;100.00;101614.00;5037007;28;45271;-72
2023/04/07 08:39:24;;;;;;;;;12.75;8.00;;;;;12.32;100.00;101612.31;5031575;28;71952;-74
2023/04/07 08:41:49;;;;;;;;;10.25;8.00;;;;;12.36;100.00;101619.44;5034679;28;45401;-72
2023/04/07 08:44:15;;;;;;;;;7.50;7.50;;;;;12.36;100.00;101608.84;5018713;28;45361;-72
2023/04/07 08:46:40;;;;;;;;;11.50;8.75;;;;;12.44;100.00;101615.16;5016375;28;45593;-74
2023/04/07 08:49:12;;;;;;;;;8.25;6.00;;;;;12.48;100.00;101619.63;5036015;28;72121;-72
2023/04/07 08:51:46;;;;;;;;;8.75;5.50;;;;;12.52;100.00;101612.63;5020778;28;45584;-72
2023/04/07 08:54:14;;;;;;;;;9.75;9.00;;;;;12.53;100.00;101612.66;5029250;28;45274;-72
2023/04/07 08:56:41;;;;;;;;;7.25;6.50;;;;;12.58;100.00;101612.72;5035289;28;45352;-72
2023/04/07 08:59:09;;;;;;;;;12.50;10.00;;;;;12.65;100.00;101621.66;5026769;28;46415;-74
2023/04/07 09:01:35;;;;;;;;;11.00;8.00;;;;;12.68;100.00;101613.75;5025180;28;45585;-73
2023/04/07 09:04:02;;;;;;;;;11.00;6.00;;;;;12.73;100.00;101625.28;5029475;28;46694;-73
2023/04/07 09:06:30;;;;;;;;;7.33;6.00;;;;;12.74;100.00;101620.03;5016634;28;45510;-73
2023/04/07 09:08:56;;;;;;;;;12.67;10.00;;;;;12.82;100.00;101628.97;5034050;28;46711;-73
2023/04/07 09:11:22;;;;;;;;;6.00;6.00;;;;;12.85;100.00;101631.69;5035132;28;45463;-72
2023/04/07 09:13:48;;;;;;;;;12.25;9.50;;;;;12.89;100.00;101627.31;5001891;28;45530;-72
2023/04/07 09:16:14;;;;;;;;;10.00;10.00;;;;;12.93;100.00;101628.25;5034642;28;45459;-72
2023/04/07 09:18:39;;;;;;;;;10.00;7.67;;;;;12.97;100.00;101633.59;5035686;28;45824;-72
2023/04/07 09:21:06;;;;;;;;;10.00;8.00;;;;;13.02;100.00;101623.97;5027658;28;45510;-73
2023/04/07 09:23:39;;;;;;;;;9.50;7.75;;;;;13.09;100.00;101630.22;5031367;28;45482;-72
2023/04/07 09:26:26;;;;;;;;;8.00;7.00;;;;;13.16;100.00;101628.56;5032278;28;45434;-73
2023/04/07 09:28:54;;;;;;;;;7.00;6.00;;;;;13.25;100.00;101623.41;5033999;28;46429;-72
2023/04/07 09:31:21;;;;;;;;;11.00;9.00;;;;;13.34;100.00;101634.13;5035286;28;45512;-72
2023/04/07 09:33:50;;;;;;;;;10.67;6.67;;;;;13.41;100.00;101638.63;5032490;28;45546;-71
2023/04/07 09:36:16;;;;;;;;;13.00;9.67;;;;;13.42;100.00;101635.09;5035970;28;45686;-71
2023/04/07 09:38:42;;;;;;;;;11.50;8.25;;;;;13.43;100.00;101625.41;5032382;28;45940;-72
2023/04/07 09:41:17;;;;;;;;;9.00;7.25;;;;;13.45;100.00;101643.09;5036255;28;45647;-72
2023/04/07 09:43:44;;;;;;;;;11.00;8.50;;;;;13.48;100.00;101636.97;5035240;28;45499;-71
2023/04/07 09:46:17;;;;;;;;;8.67;5.67;;;;;13.49;100.00;101631.66;5013378;28;45700;-71
2023/04/07 09:48:44;;;;;;;;;11.00;10.67;;;;;13.58;100.00;101634.44;5028565;28;47030;-71
2023/04/07 09:51:10;;;;;;;;;13.50;10.75;;;;;13.75;100.00;101634.63;5034371;28;45446;-71
2023/04/07 09:53:47;;;;;;;;;6.00;6.00;;;;;13.86;100.00;101634.72;5033496;28;45459;-71
2023/04/07 09:56:15;;;;;;;;;14.75;10.50;;;;;13.93;100.00;101643.66;5031765;28;45833;-71
2023/04/07 09:58:42;;;;;;;;;10.33;6.00;;;;;13.99;100.00;101639.28;5033753;28;46823;-72
2023/04/07 10:01:08;;;;;;;;;5.00;5.00;;;;;14.04;100.00;101640.22;5027432;28;45528;-73
2023/04/07 10:03:35;;;;;;;;;11.00;6.33;;;;;14.07;100.00;101634.94;5029643;28;45615;-71
2023/04/07 10:06:01;;;;;;;;;7.33;6.00;;;;;14.11;100.00;101638.50;5033068;28;45487;-74
2023/04/07 10:08:27;;;;;;;;;18.00;13.00;;;;;14.19;100.00;101644.78;5033662;28;46396;-71
2023/04/07 10:10:54;;;;;;;;;14.67;6.67;;;;;14.32;100.00;101643.13;5035645;28;45343;-71
2023/04/07 10:13:20;;;;;;;;;6.00;5.00;;;;;14.37;100.00;101636.97;5034752;28;45305;-71
2023/04/07 10:15:45;;;;;;;;;13.33;8.00;;;;;14.37;100.00;101633.41;5033750;28;45562;-74
2023/04/07 10:18:11;;;;;;;;;9.67;5.00;;;;;14.39;100.00;101637.00;5015316;28;67928;-75
2023/04/07 10:20:42;;;;;;;;;9.00;7.33;;;;;14.42;100.00;101627.25;5014831;28;68685;-73
2023/04/07 10:23:26;;;;;;;;;10.33;5.00;;;;;14.48;100.00;101634.44;5017292;28;47144;-73
2023/04/07 10:25:53;;;;;;;;;7.00;5.33;;;;;14.55;99.45;101633.63;5033588;28;45588;-73
2023/04/07 10:28:22;;;;;;;;;6.00;4.00;;;;;14.58;98.28;101638.06;5014244;28;45729;-71
2023/04/07 10:30:47;;;;;;;;;5.00;2.33;;;;;14.58;97.94;101633.63;5032022;28;45503;-71
2023/04/07 10:33:13;;;;;;;;;3.00;3.00;;;;;14.62;95.69;101632.78;5026534;28;63731;-71
2023/04/07 10:36:05;;;;;;;;;2.67;2.33;;;;;14.70;91.95;101639.91;5037617;28;59854;-71
2023/04/07 10:38:31;;;;;;;;;7.33;5.00;;;;;14.79;92.84;101632.88;5023439;28;47092;-71
2023/04/07 10:40:57;;;;;;;;;5.00;5.00;;;;;14.93;92.50;101630.31;5035031;28;45495;-72
2023/04/07 10:43:40;;;;;;;;;4.67;4.67;;;;;15.05;92.85;101632.16;5031711;28;45362;-71
2023/04/07 10:46:05;;;;;;;;;6.67;6.67;;;;;15.12;92.34;101626.88;5030084;28;45568;-72
2023/04/07 10:48:34;;;;;;;;;4.00;4.00;;;;;15.28;92.10;101625.16;5037382;28;45823;-72
2023/04/07 10:51:06;;;;;;;;;3.00;3.00;;;;;15.50;90.92;101628.81;5034057;28;45582;-73
2023/04/07 10:53:31;;;;;;;;;6.67;3.33;;;;;15.59;89.95;101625.28;5032771;28;45346;-72
2023/04/07 10:55:58;;;;;;;;;4.33;4.33;;;;;15.67;89.23;101618.25;5028650;28;45447;-71
2023/04/07 10:58:24;;;;;;;;;4.00;4.00;;;;;15.77;89.27;101619.19;5027149;28;45627;-70
2023/04/07 11:00:55;;;;;;;;;4.00;4.00;;;;;15.85;88.95;101617.41;5031790;28;45578;-70
2023/04/07 11:03:21;;;;;;;;;4.00;4.00;;;;;15.85;88.16;101615.63;5034424;28;45459;-70
2023/04/07 11:05:47;;;;;;;;;3.00;3.00;;;;;15.93;87.85;101615.66;5035195;28;45575;-71
2023/04/07 11:08:12;;;;;;;;;4.33;4.00;;;;;16.09;87.74;101611.22;5028685;28;68500;-70
2023/04/07 11:10:37;;;;;;;;;4.00;3.00;;;;;16.28;87.02;101612.13;5031247;28;45415;-70
2023/04/07 11:13:07;;;;;;;;;4.00;2.33;;;;;16.44;85.78;101609.44;5031811;28;64645;-72